PWSweather.com
Personal Weather Stations
Station Observations
GEELONGWX1
Bell Post Hill, GeelongAU

Bell Post HillGeelongAU

Lat: -38.101, Lon: 144.326

Elevation: 204

Station Type: Davis Vantage Pro2

http://www.geelongweather.com

Latest ConditionsUpdated 12:50:01 PM GMT+10:10 Monday, Jul 6, 2015
Currently Today's Max Today's Min Today's Average
Temperature 55.5°F13.1°C 56.2°F13.4°C 49.2°F9.6°C 51.7°F10.9°C
Dew Point 43.1°F6.2°C 43.1°F6.2°C 39.0°F3.9°C 40.2°F4.6°C
Winds Calm Calm 5.8 mph W9.3 kmh W - 0.8 mph 1.3 kmh
Wind Gusts -- 11.5 mph18.5 kmh - -
Humidity 63% 71% 60% 65%
Pressure 30.04 in1017.3 mb 30.08 in1018.6 mb 30.04 in1017.3 mb -
Hour Temp Dew Point Humidity Winds Wind Gusts Pressure Precip Precip Rate Daily Precip Total
12:50 PM 55.5°F13.1°C 43.1°F6.2°C 63% Calm Calm -- 30.04 in1017.3 mb - 0.00 in0.0 mm 0.00 in0.0 mm
12:40 PM 55.5°F13.1°C 42.7°F5.9°C 62% Calm Calm -- 30.04 in1017.3 mb - 0.00 in0.0 mm 0.00 in0.0 mm
12:30 PM 55.3°F12.9°C 42.5°F5.8°C 62% Calm Calm -- 30.04 in1017.3 mb - 0.00 in0.0 mm 0.00 in0.0 mm
12:20 PM 55.3°F12.9°C 42.5°F5.8°C 62% Calm Calm -- 30.04 in1017.3 mb - 0.00 in0.0 mm 0.00 in0.0 mm
12:10 PM 55.5°F13.1°C 42.7°F5.9°C 62% Calm Calm -- 30.05 in1017.6 mb - 0.00 in0.0 mm 0.00 in0.0 mm
12:00 PM 55.8°F13.2°C 42.5°F5.8°C 61% 2.3 mph NW3.7 kmh NW 3.5 mph5.6 kmh 30.05 in1017.6 mb - 0.00 in0.0 mm 0.00 in0.0 mm
11:50 AM 55.9°F13.3°C 42.6°F5.9°C 61% 3.5 mph NNW5.6 kmh NNW 8.1 mph13.0 kmh 30.05 in1017.6 mb - 0.00 in0.0 mm 0.00 in0.0 mm
11:40 AM 56.2°F13.4°C 42.9°F6.1°C 61% 1.2 mph WNW1.9 kmh WNW 3.5 mph5.6 kmh 30.06 in1017.9 mb - 0.00 in0.0 mm 0.00 in0.0 mm
11:30 AM 56.1°F13.4°C 42.8°F6.0°C 61% 1.2 mph NW1.9 kmh NW -- 30.06 in1017.9 mb - 0.00 in0.0 mm 0.00 in0.0 mm
11:20 AM 55.6°F13.1°C 42.8°F6.0°C 62% 1.2 mph NW1.9 kmh NW 6.9 mph11.1 kmh 30.06 in1017.9 mb - 0.00 in0.0 mm 0.00 in0.0 mm
11:10 AM 54.2°F12.3°C 42.3°F5.7°C 64% 3.5 mph NW5.6 kmh NW 5.8 mph9.3 kmh 30.06 in1017.9 mb - 0.00 in0.0 mm 0.00 in0.0 mm
11:00 AM 54.0°F12.2°C 42.1°F5.6°C 64% 2.3 mph W3.7 kmh W 3.5 mph5.6 kmh 30.06 in1017.9 mb - 0.00 in0.0 mm 0.00 in0.0 mm
10:50 AM 54.0°F12.2°C 42.5°F5.8°C 65% Calm Calm -- 30.07 in1018.3 mb - 0.00 in0.0 mm 0.00 in0.0 mm
10:40 AM 53.0°F11.7°C 42.3°F5.7°C 67% Calm Calm -- 30.08 in1018.6 mb - 0.00 in0.0 mm 0.00 in0.0 mm
10:30 AM 51.7°F10.9°C 42.2°F5.7°C 70% Calm Calm -- 30.08 in1018.6 mb - 0.00 in0.0 mm 0.00 in0.0 mm
10:20 AM 51.5°F10.8°C 42.4°F5.8°C 71% Calm Calm -- 30.08 in1018.6 mb - 0.00 in0.0 mm 0.00 in0.0 mm
10:10 AM 51.2°F10.7°C 42.1°F5.6°C 71% Calm Calm -- 30.07 in1018.3 mb - 0.00 in0.0 mm 0.00 in0.0 mm
10:00 AM 50.9°F10.5°C 41.5°F5.3°C 70% Calm Calm -- 30.07 in1018.3 mb - 0.00 in0.0 mm 0.00 in0.0 mm
09:50 AM 50.8°F10.4°C 40.9°F4.9°C 69% Calm Calm -- 30.07 in1018.3 mb - 0.00 in0.0 mm 0.00 in0.0 mm
09:40 AM 50.6°F10.3°C 40.8°F4.9°C 69% Calm Calm -- 30.07 in1018.3 mb - 0.00 in0.0 mm 0.00 in0.0 mm
09:30 AM 50.5°F10.3°C 40.7°F4.8°C 69% Calm Calm -- 30.07 in1018.3 mb - 0.00 in0.0 mm 0.00 in0.0 mm
09:20 AM 50.3°F10.2°C 40.1°F4.5°C 68% Calm Calm -- 30.07 in1018.3 mb - 0.00 in0.0 mm 0.00 in0.0 mm
09:10 AM 50.3°F10.2°C 40.1°F4.5°C 68% Calm Calm -- 30.07 in1018.3 mb - 0.00 in0.0 mm 0.00 in0.0 mm
09:00 AM 50.2°F10.1°C 40.0°F4.4°C 68% Calm Calm -- 30.07 in1018.3 mb - 0.00 in0.0 mm 0.00 in0.0 mm
08:50 AM 50.1°F10.1°C 39.9°F4.4°C 68% Calm Calm -- 30.07 in1018.3 mb - 0.00 in0.0 mm 0.00 in0.0 mm
08:40 AM 50.0°F10.0°C 40.2°F4.6°C 69% Calm Calm -- 30.06 in1017.9 mb - 0.00 in0.0 mm 0.00 in0.0 mm
08:30 AM 49.8°F9.9°C 40.1°F4.5°C 69% Calm Calm -- 30.06 in1017.9 mb - 0.00 in0.0 mm 0.00 in0.0 mm
08:20 AM 49.6°F9.8°C 40.2°F4.6°C 70% Calm Calm -- 30.06 in1017.9 mb - 0.00 in0.0 mm 0.00 in0.0 mm
08:10 AM 49.4°F9.7°C 39.7°F4.3°C 69% Calm Calm -- 30.06 in1017.9 mb - 0.00 in0.0 mm 0.00 in0.0 mm
08:00 AM 49.3°F9.6°C 39.6°F4.2°C 69% Calm Calm -- 30.05 in1017.6 mb - 0.00 in0.0 mm 0.00 in0.0 mm
07:50 AM 49.3°F9.6°C 39.9°F4.4°C 70% Calm Calm -- 30.05 in1017.6 mb - 0.00 in0.0 mm 0.00 in0.0 mm
07:40 AM 49.2°F9.6°C 39.9°F4.4°C 70% Calm Calm 2.3 mph3.7 kmh 30.05 in1017.6 mb - 0.00 in0.0 mm 0.00 in0.0 mm
07:30 AM 49.3°F9.6°C 39.9°F4.4°C 70% Calm Calm -- 30.05 in1017.6 mb - 0.00 in0.0 mm 0.00 in0.0 mm
07:20 AM 49.4°F9.7°C 39.7°F4.3°C 69% Calm Calm -- 30.05 in1017.6 mb - 0.00 in0.0 mm 0.00 in0.0 mm
07:10 AM 49.5°F9.7°C 39.7°F4.3°C 69% Calm Calm -- 30.05 in1017.6 mb - 0.00 in0.0 mm 0.00 in0.0 mm
07:00 AM 49.6°F9.8°C 39.5°F4.2°C 68% Calm Calm -- 30.05 in1017.6 mb - 0.00 in0.0 mm 0.00 in0.0 mm
06:50 AM 49.7°F9.8°C 39.6°F4.2°C 68% Calm Calm -- 30.05 in1017.6 mb - 0.00 in0.0 mm 0.00 in0.0 mm
06:40 AM 49.8°F9.9°C 39.3°F4.1°C 67% Calm Calm -- 30.05 in1017.6 mb - 0.00 in0.0 mm 0.00 in0.0 mm
06:30 AM 49.9°F9.9°C 39.0°F3.9°C 66% Calm Calm -- 30.05 in1017.6 mb - 0.00 in0.0 mm 0.00 in0.0 mm
06:20 AM 50.0°F10.0°C 39.1°F3.9°C 66% Calm Calm -- 30.05 in1017.6 mb - 0.00 in0.0 mm 0.00 in0.0 mm
06:10 AM 50.1°F10.1°C 39.2°F4.0°C 66% Calm Calm -- 30.05 in1017.6 mb - 0.00 in0.0 mm 0.00 in0.0 mm
06:00 AM 50.2°F10.1°C 39.3°F4.1°C 66% Calm Calm -- 30.05 in1017.6 mb - 0.00 in0.0 mm 0.00 in0.0 mm
05:50 AM 50.3°F10.2°C 39.0°F3.9°C 65% Calm Calm -- 30.05 in1017.6 mb - 0.00 in0.0 mm 0.00 in0.0 mm
05:40 AM 50.5°F10.3°C 39.2°F4.0°C 65% Calm Calm -- 30.05 in1017.6 mb - 0.00 in0.0 mm 0.00 in0.0 mm
05:30 AM 50.7°F10.4°C 39.4°F4.1°C 65% Calm Calm -- 30.05 in1017.6 mb - 0.00 in0.0 mm 0.00 in0.0 mm
05:20 AM 50.9°F10.5°C 39.5°F4.2°C 65% Calm Calm -- 30.05 in1017.6 mb - 0.00 in0.0 mm 0.00 in0.0 mm
05:10 AM 51.1°F10.6°C 39.3°F4.1°C 64% Calm Calm -- 30.05 in1017.6 mb - 0.00 in0.0 mm 0.00 in0.0 mm
05:00 AM 51.2°F10.7°C 39.4°F4.1°C 64% Calm Calm -- 30.05 in1017.6 mb - 0.00 in0.0 mm 0.00 in0.0 mm
04:50 AM 51.2°F10.7°C 39.1°F3.9°C 63% Calm Calm -- 30.05 in1017.6 mb - 0.00 in0.0 mm 0.00 in0.0 mm
04:40 AM 51.3°F10.7°C 39.1°F3.9°C 63% Calm Calm 3.5 mph5.6 kmh 30.05 in1017.6 mb - 0.00 in0.0 mm 0.00 in0.0 mm
04:30 AM 51.3°F10.7°C 39.1°F3.9°C 63% 1.2 mph WNW1.9 kmh WNW 3.5 mph5.6 kmh 30.05 in1017.6 mb - 0.00 in0.0 mm 0.00 in0.0 mm
04:20 AM 51.4°F10.8°C 39.2°F4.0°C 63% Calm Calm 4.6 mph7.4 kmh 30.05 in1017.6 mb - 0.00 in0.0 mm 0.00 in0.0 mm
04:10 AM 51.4°F10.8°C 39.2°F4.0°C 63% 1.2 mph W1.9 kmh W 8.1 mph13.0 kmh 30.05 in1017.6 mb - 0.00 in0.0 mm 0.00 in0.0 mm
04:00 AM 51.4°F10.8°C 39.2°F4.0°C 63% 2.3 mph W3.7 kmh W 6.9 mph11.1 kmh 30.05 in1017.6 mb - 0.00 in0.0 mm 0.00 in0.0 mm
03:50 AM 51.4°F10.8°C 39.2°F4.0°C 63% 1.2 mph W1.9 kmh W 8.1 mph13.0 kmh 30.05 in1017.6 mb - 0.00 in0.0 mm 0.00 in0.0 mm
03:40 AM 51.4°F10.8°C 39.2°F4.0°C 63% 2.3 mph W3.7 kmh W 8.1 mph13.0 kmh 30.05 in1017.6 mb - 0.00 in0.0 mm 0.00 in0.0 mm
03:30 AM 51.4°F10.8°C 39.2°F4.0°C 63% 1.2 mph W1.9 kmh W 8.1 mph13.0 kmh 30.05 in1017.6 mb - 0.00 in0.0 mm 0.00 in0.0 mm
03:20 AM 51.4°F10.8°C 39.3°F4.1°C 63% 5.8 mph W9.3 kmh W 11.5 mph18.5 kmh 30.06 in1017.9 mb - 0.00 in0.0 mm 0.00 in0.0 mm
03:10 AM 51.5°F10.8°C 39.3°F4.1°C 63% 1.2 mph WNW1.9 kmh WNW 5.8 mph9.3 kmh 30.06 in1017.9 mb - 0.00 in0.0 mm 0.00 in0.0 mm
03:00 AM 51.5°F10.8°C 39.3°F4.1°C 63% 2.3 mph W3.7 kmh W 5.8 mph9.3 kmh 30.06 in1017.9 mb - 0.00 in0.0 mm 0.00 in0.0 mm
02:50 AM 51.6°F10.9°C 39.4°F4.1°C 63% 2.3 mph WNW3.7 kmh WNW 3.5 mph5.6 kmh 30.06 in1017.9 mb - 0.00 in0.0 mm 0.00 in0.0 mm
02:40 AM 51.6°F10.9°C 39.0°F3.9°C 62% 2.3 mph W3.7 kmh W 6.9 mph11.1 kmh 30.06 in1017.9 mb - 0.00 in0.0 mm 0.00 in0.0 mm
02:30 AM 51.7°F10.9°C 39.1°F3.9°C 62% 3.5 mph W5.6 kmh W 4.6 mph7.4 kmh 30.07 in1018.3 mb - 0.00 in0.0 mm 0.00 in0.0 mm
02:20 AM 51.9°F11.1°C 39.3°F4.1°C 62% 1.2 mph W1.9 kmh W 5.8 mph9.3 kmh 30.07 in1018.3 mb - 0.00 in0.0 mm 0.00 in0.0 mm
02:10 AM 51.9°F11.1°C 39.3°F4.1°C 62% 1.2 mph WNW1.9 kmh WNW 3.5 mph5.6 kmh 30.07 in1018.3 mb - 0.00 in0.0 mm 0.00 in0.0 mm
02:00 AM 52.0°F11.1°C 39.0°F3.9°C 61% 1.2 mph W1.9 kmh W 5.8 mph9.3 kmh 30.07 in1018.3 mb - 0.00 in0.0 mm 0.00 in0.0 mm
01:50 AM 52.1°F11.2°C 39.1°F3.9°C 61% 1.2 mph WNW1.9 kmh WNW 3.5 mph5.6 kmh 30.07 in1018.3 mb - 0.00 in0.0 mm 0.00 in0.0 mm
01:40 AM 52.1°F11.2°C 39.1°F3.9°C 61% 2.3 mph WSW3.7 kmh WSW 3.5 mph5.6 kmh 30.07 in1018.3 mb - 0.00 in0.0 mm 0.00 in0.0 mm
01:30 AM 52.2°F11.2°C 39.1°F3.9°C 61% 1.2 mph W1.9 kmh W 4.6 mph7.4 kmh 30.07 in1018.3 mb - 0.00 in0.0 mm 0.00 in0.0 mm
01:20 AM 52.2°F11.2°C 39.1°F3.9°C 61% 3.5 mph W5.6 kmh W 4.6 mph7.4 kmh 30.07 in1018.3 mb - 0.00 in0.0 mm 0.00 in0.0 mm
01:10 AM 52.3°F11.3°C 39.2°F4.0°C 61% 1.2 mph W1.9 kmh W 3.5 mph5.6 kmh 30.07 in1018.3 mb - 0.00 in0.0 mm 0.00 in0.0 mm
01:00 AM 52.4°F11.3°C 39.4°F4.1°C 61% Calm Calm 3.5 mph5.6 kmh 30.07 in1018.3 mb - 0.00 in0.0 mm 0.00 in0.0 mm
12:50 AM 52.5°F11.4°C 39.4°F4.1°C 61% 1.2 mph WSW1.9 kmh WSW 5.8 mph9.3 kmh 30.08 in1018.6 mb - 0.00 in0.0 mm 0.00 in0.0 mm
12:40 AM 52.6°F11.4°C 39.5°F4.2°C 61% Calm Calm -- 30.08 in1018.6 mb - 0.00 in0.0 mm 0.00 in0.0 mm
12:30 AM 52.8°F11.6°C 39.7°F4.3°C 61% Calm Calm 2.3 mph3.7 kmh 30.08 in1018.6 mb - 0.00 in0.0 mm 0.00 in0.0 mm
12:20 AM 52.9°F11.6°C 39.8°F4.3°C 61% 2.3 mph W3.7 kmh W 4.6 mph7.4 kmh 30.08 in1018.6 mb - 0.00 in0.0 mm 0.00 in0.0 mm
12:10 AM 53.0°F11.7°C 39.5°F4.2°C 60% Calm Calm -- 30.08 in1018.6 mb - 0.00 in0.0 mm 0.00 in0.0 mm
12:00 AM 53.1°F11.7°C 39.6°F4.2°C 60% 2.3 mph W3.7 kmh W 3.5 mph5.6 kmh 30.08 in1018.6 mb - 0.00 in0.0 mm 0.00 in0.0 mm